This is the latest recevied weather packets stored in our database for station/object KC3ELT-10. If no packets are shown the sender has not sent any weather packets the latest 10 day(s).
| Time | Temp. | Humidity | Pressure | Rain* | Wind** | Luminosity | Snow |
|---|---|---|---|---|---|---|---|
| 1777860779 | 11.11° C | 44% | 1007.7 hPa | 0 mm | 2.68 m/s, 264° | - | - |
| 1777860479 | 10.56° C | 44% | 1007.7 hPa | 0 mm | 1.79 m/s, 245° | - | - |
| 1777860179 | 10.56° C | 44% | 1007.7 hPa | 0 mm | 2.24 m/s, 251° | - | - |
| 1777859879 | 10.56° C | 44% | 1007.6 hPa | 0 mm | 1.34 m/s, 260° | - | - |
| 1777859579 | 10.56° C | 44% | 1007.6 hPa | 0 mm | 0.89 m/s, 265° | - | - |
| 1777859279 | 11.11° C | 44% | 1007.6 hPa | 0 mm | 1.34 m/s, 270° | - | - |
| 1777858979 | 11.11° C | 43% | 1007.5 hPa | 0 mm | 1.34 m/s, 268° | - | - |
| 1777858679 | 11.11° C | 43% | 1007.5 hPa | 0 mm | 0.89 m/s, 255° | - | - |
| 1777858379 | 11.11° C | 44% | 1007.5 hPa | 0 mm | 2.24 m/s, 232° | - | - |
| 1777858079 | 11.11° C | 43% | 1007.3 hPa | 0 mm | 1.34 m/s, 273° | - | - |
| 1777857779 | 11.11° C | 43% | 1007.3 hPa | 0 mm | 1.34 m/s, 264° | - | - |
| 1777857479 | 11.11° C | 42% | 1007.3 hPa | 0 mm | 0.89 m/s, 297° | - | - |
| 1777857179 | 11.11° C | 42% | 1007.4 hPa | 0 mm | 1.79 m/s, 274° | - | - |
| 1777856879 | 11.11° C | 42% | 1007.4 hPa | 0 mm | 1.34 m/s, 278° | - | - |
| 1777856579 | 11.11° C | 42% | 1007.4 hPa | 0 mm | 2.24 m/s, 261° | - | - |
| 1777856279 | 11.11° C | 41% | 1007.2 hPa | 0 mm | 2.24 m/s, 264° | - | - |
| 1777855979 | 11.11° C | 42% | 1007.2 hPa | 0 mm | 2.68 m/s, 250° | - | - |
| 1777855679 | 11.67° C | 41% | 1007.2 hPa | 0 mm | 0.45 m/s, 289° | - | - |
| 1777855379 | 11.67° C | 41% | 1006.9 hPa | 0 mm | 1.34 m/s, 248° | - | - |
| 1777855079 | 11.67° C | 41% | 1006.9 hPa | 0 mm | 0.45 m/s, 276° | - | - |
| 1777854779 | 11.67° C | 40% | 1006.9 hPa | 0 mm | 1.79 m/s, 242° | - | - |
| 1777854479 | 11.67° C | 40% | 1006.8 hPa | 0 mm | 0.45 m/s, 298° | - | - |
| 1777854179 | 11.67° C | 40% | 1006.8 hPa | 0 mm | 2.24 m/s, 276° | - | - |
| 1777853879 | 11.67° C | 40% | 1006.8 hPa | 0 mm | 1.34 m/s, 252° | - | - |
| 1777853579 | 11.67° C | 40% | 1006.7 hPa | 0 mm | 1.34 m/s, 326° | - | - |
* Rain latest hour (hover to see other rain measurements)
** Current wind speed in m/s (hover to see current wind gust speed)